sensor_id;sensor_type;location;lat;lon;timestamp;P1;durP1;ratioP1;P2;durP2;ratioP2
3415;SDS011;1721;51.238;9.562;2023-04-08T00:00:33;7.77;;;2.63;;
3415;SDS011;1721;51.238;9.562;2023-04-08T00:02:58;6.90;;;2.17;;
3415;SDS011;1721;51.238;9.562;2023-04-08T00:05:25;5.57;;;2.65;;
3415;SDS011;1721;51.238;9.562;2023-04-08T00:07:50;8.53;;;3.80;;
3415;SDS011;1721;51.238;9.562;2023-04-08T00:10:16;3.50;;;1.73;;
3415;SDS011;1721;51.238;9.562;2023-04-08T00:12:42;4.57;;;2.30;;
3415;SDS011;1721;51.238;9.562;2023-04-08T00:15:07;10.07;;;4.17;;
3415;SDS011;1721;51.238;9.562;2023-04-08T00:17:33;11.60;;;3.47;;
3415;SDS011;1721;51.238;9.562;2023-04-08T00:19:59;10.63;;;3.27;;
3415;SDS011;1721;51.238;9.562;2023-04-08T00:22:24;18.73;;;3.53;;
3415;SDS011;1721;51.238;9.562;2023-04-08T00:24:50;8.00;;;2.73;;
3415;SDS011;1721;51.238;9.562;2023-04-08T00:27:15;8.37;;;3.17;;
3415;SDS011;1721;51.238;9.562;2023-04-08T00:29:41;9.50;;;2.93;;
3415;SDS011;1721;51.238;9.562;2023-04-08T00:32:06;5.30;;;2.57;;
3415;SDS011;1721;51.238;9.562;2023-04-08T00:34:32;9.63;;;3.40;;
3415;SDS011;1721;51.238;9.562;2023-04-08T00:36:58;5.10;;;2.80;;
3415;SDS011;1721;51.238;9.562;2023-04-08T00:39:23;8.73;;;3.70;;
3415;SDS011;1721;51.238;9.562;2023-04-08T00:41:49;8.70;;;3.90;;
3415;SDS011;1721;51.238;9.562;2023-04-08T00:44:15;9.50;;;3.13;;
3415;SDS011;1721;51.238;9.562;2023-04-08T00:46:41;9.20;;;3.63;;
3415;SDS011;1721;51.238;9.562;2023-04-08T00:49:06;5.33;;;3.30;;
3415;SDS011;1721;51.238;9.562;2023-04-08T00:51:32;9.70;;;3.77;;
3415;SDS011;1721;51.238;9.562;2023-04-08T00:54:00;9.02;;;3.70;;
3415;SDS011;1721;51.238;9.562;2023-04-08T00:56:28;9.55;;;3.28;;
3415;SDS011;1721;51.238;9.562;2023-04-08T00:58:55;11.30;;;3.92;;
3415;SDS011;1721;51.238;9.562;2023-04-08T01:01:27;7.53;;;3.53;;
3415;SDS011;1721;51.238;9.562;2023-04-08T01:04:09;7.65;;;3.40;;
3415;SDS011;1721;51.238;9.562;2023-04-08T01:06:38;11.13;;;4.03;;
3415;SDS011;1721;51.238;9.562;2023-04-08T01:09:10;10.60;;;4.05;;
3415;SDS011;1721;51.238;9.562;2023-04-08T01:11:37;9.68;;;4.20;;
3415;SDS011;1721;51.238;9.562;2023-04-08T01:14:10;7.00;;;3.10;;
3415;SDS011;1721;51.238;9.562;2023-04-08T01:16:40;7.63;;;3.13;;
3415;SDS011;1721;51.238;9.562;2023-04-08T01:19:08;9.13;;;3.50;;
3415;SDS011;1721;51.238;9.562;2023-04-08T01:21:40;6.30;;;2.90;;
3415;SDS011;1721;51.238;9.562;2023-04-08T01:24:08;5.87;;;2.87;;
3415;SDS011;1721;51.238;9.562;2023-04-08T01:26:42;6.78;;;2.80;;
3415;SDS011;1721;51.238;9.562;2023-04-08T01:29:08;9.18;;;4.20;;
3415;SDS011;1721;51.238;9.562;2023-04-08T01:31:36;11.50;;;3.35;;
3415;SDS011;1721;51.238;9.562;2023-04-08T01:34:04;8.23;;;3.03;;
3415;SDS011;1721;51.238;9.562;2023-04-08T01:36:31;8.60;;;3.05;;
3415;SDS011;1721;51.238;9.562;2023-04-08T01:38:58;11.00;;;3.42;;
3415;SDS011;1721;51.238;9.562;2023-04-08T01:41:25;8.30;;;3.08;;
3415;SDS011;1721;51.238;9.562;2023-04-08T01:43:52;6.60;;;3.40;;
3415;SDS011;1721;51.238;9.562;2023-04-08T01:46:18;5.67;;;2.93;;
3415;SDS011;1721;51.238;9.562;2023-04-08T01:48:45;8.75;;;3.20;;
3415;SDS011;1721;51.238;9.562;2023-04-08T01:51:12;6.60;;;3.00;;
3415;SDS011;1721;51.238;9.562;2023-04-08T01:53:40;9.20;;;3.33;;
3415;SDS011;1721;51.238;9.562;2023-04-08T01:56:06;18.03;;;3.60;;
3415;SDS011;1721;51.238;9.562;2023-04-08T01:58:37;9.48;;;3.22;;
3415;SDS011;1721;51.238;9.562;2023-04-08T02:01:09;9.18;;;3.17;;
3415;SDS011;1721;51.238;9.562;2023-04-08T02:03:36;8.25;;;3.58;;
3415;SDS011;1721;51.238;9.562;2023-04-08T02:06:02;8.23;;;3.85;;
3415;SDS011;1721;51.238;9.562;2023-04-08T02:08:29;7.05;;;3.47;;
3415;SDS011;1721;51.238;9.562;2023-04-08T02:10:54;6.43;;;2.50;;
3415;SDS011;1721;51.238;9.562;2023-04-08T02:13:20;7.70;;;3.27;;
3415;SDS011;1721;51.238;9.562;2023-04-08T02:15:50;4.18;;;2.08;;
3415;SDS011;1721;51.238;9.562;2023-04-08T02:18:21;7.22;;;3.70;;
3415;SDS011;1721;51.238;9.562;2023-04-08T02:23:40;8.00;;;3.40;;
3415;SDS011;1721;51.238;9.562;2023-04-08T02:26:11;9.55;;;2.90;;
3415;SDS011;1721;51.238;9.562;2023-04-08T02:28:38;7.03;;;2.50;;
3415;SDS011;1721;51.238;9.562;2023-04-08T02:31:08;9.57;;;3.60;;
3415;SDS011;1721;51.238;9.562;2023-04-08T02:33:39;4.85;;;2.25;;
3415;SDS011;1721;51.238;9.562;2023-04-08T02:36:06;6.28;;;2.60;;
3415;SDS011;1721;51.238;9.562;2023-04-08T02:38:32;6.40;;;3.00;;
3415;SDS011;1721;51.238;9.562;2023-04-08T02:40:58;7.63;;;2.80;;
3415;SDS011;1721;51.238;9.562;2023-04-08T02:43:24;7.90;;;3.73;;
3415;SDS011;1721;51.238;9.562;2023-04-08T02:45:56;7.47;;;2.75;;
3415;SDS011;1721;51.238;9.562;2023-04-08T02:48:24;13.93;;;3.47;;
3415;SDS011;1721;51.238;9.562;2023-04-08T02:50:50;5.73;;;2.60;;
3415;SDS011;1721;51.238;9.562;2023-04-08T02:53:15;9.80;;;2.70;;
3415;SDS011;1721;51.238;9.562;2023-04-08T02:55:41;4.73;;;2.40;;
3415;SDS011;1721;51.238;9.562;2023-04-08T02:58:06;11.73;;;3.30;;
3415;SDS011;1721;51.238;9.562;2023-04-08T03:00:32;9.80;;;3.07;;
3415;SDS011;1721;51.238;9.562;2023-04-08T03:02:58;6.30;;;2.97;;
3415;SDS011;1721;51.238;9.562;2023-04-08T03:05:24;8.00;;;3.40;;
3415;SDS011;1721;51.238;9.562;2023-04-08T03:07:50;9.55;;;3.80;;
3415;SDS011;1721;51.238;9.562;2023-04-08T03:10:15;10.20;;;2.87;;
3415;SDS011;1721;51.238;9.562;2023-04-08T03:12:41;7.33;;;3.00;;
3415;SDS011;1721;51.238;9.562;2023-04-08T03:15:07;6.20;;;2.87;;
3415;SDS011;1721;51.238;9.562;2023-04-08T03:17:32;6.07;;;2.90;;
3415;SDS011;1721;51.238;9.562;2023-04-08T03:19:58;8.50;;;3.53;;
3415;SDS011;1721;51.238;9.562;2023-04-08T03:22:24;8.25;;;2.95;;
3415;SDS011;1721;51.238;9.562;2023-04-08T03:24:50;6.73;;;3.47;;
3415;SDS011;1721;51.238;9.562;2023-04-08T03:27:16;9.30;;;3.40;;
3415;SDS011;1721;51.238;9.562;2023-04-08T03:29:41;5.93;;;2.33;;
3415;SDS011;1721;51.238;9.562;2023-04-08T03:32:07;10.13;;;3.73;;
3415;SDS011;1721;51.238;9.562;2023-04-08T03:34:35;8.53;;;3.67;;
3415;SDS011;1721;51.238;9.562;2023-04-08T03:37:01;7.88;;;3.30;;
3415;SDS011;1721;51.238;9.562;2023-04-08T03:39:27;8.53;;;3.33;;
3415;SDS011;1721;51.238;9.562;2023-04-08T03:41:52;9.07;;;4.17;;
3415;SDS011;1721;51.238;9.562;2023-04-08T03:44:18;9.40;;;3.43;;
3415;SDS011;1721;51.238;9.562;2023-04-08T03:46:43;7.40;;;3.60;;
3415;SDS011;1721;51.238;9.562;2023-04-08T03:49:09;6.90;;;2.90;;
3415;SDS011;1721;51.238;9.562;2023-04-08T03:51:34;9.10;;;3.13;;
3415;SDS011;1721;51.238;9.562;2023-04-08T03:54:00;7.80;;;3.67;;
3415;SDS011;1721;51.238;9.562;2023-04-08T03:56:25;6.90;;;3.40;;
3415;SDS011;1721;51.238;9.562;2023-04-08T03:58:51;6.63;;;2.90;;
3415;SDS011;1721;51.238;9.562;2023-04-08T04:01:17;11.83;;;3.60;;
3415;SDS011;1721;51.238;9.562;2023-04-08T04:03:42;8.00;;;3.63;;
3415;SDS011;1721;51.238;9.562;2023-04-08T04:06:08;7.77;;;3.40;;
3415;SDS011;1721;51.238;9.562;2023-04-08T04:08:34;8.57;;;3.67;;
3415;SDS011;1721;51.238;9.562;2023-04-08T04:10:59;10.33;;;3.70;;
3415;SDS011;1721;51.238;9.562;2023-04-08T04:13:25;10.20;;;3.70;;
3415;SDS011;1721;51.238;9.562;2023-04-08T04:15:50;11.40;;;4.70;;
3415;SDS011;1721;51.238;9.562;2023-04-08T04:18:16;9.67;;;3.40;;
3415;SDS011;1721;51.238;9.562;2023-04-08T04:20:42;8.37;;;3.33;;
3415;SDS011;1721;51.238;9.562;2023-04-08T04:23:08;10.37;;;3.30;;
3415;SDS011;1721;51.238;9.562;2023-04-08T04:25:34;7.37;;;3.03;;
3415;SDS011;1721;51.238;9.562;2023-04-08T04:27:59;8.40;;;3.20;;
3415;SDS011;1721;51.238;9.562;2023-04-08T04:30:26;8.32;;;3.72;;
3415;SDS011;1721;51.238;9.562;2023-04-08T04:32:52;9.33;;;3.67;;
3415;SDS011;1721;51.238;9.562;2023-04-08T04:35:17;6.50;;;2.93;;
3415;SDS011;1721;51.238;9.562;2023-04-08T04:37:43;5.67;;;2.77;;
3415;SDS011;1721;51.238;9.562;2023-04-08T04:40:09;11.00;;;3.20;;
3415;SDS011;1721;51.238;9.562;2023-04-08T04:42:35;6.97;;;3.60;;
3415;SDS011;1721;51.238;9.562;2023-04-08T04:45:00;11.10;;;4.10;;
3415;SDS011;1721;51.238;9.562;2023-04-08T04:47:26;12.30;;;2.97;;
3415;SDS011;1721;51.238;9.562;2023-04-08T04:49:52;5.27;;;2.50;;
3415;SDS011;1721;51.238;9.562;2023-04-08T04:52:17;12.20;;;2.83;;
3415;SDS011;1721;51.238;9.562;2023-04-08T04:54:43;7.40;;;2.80;;
3415;SDS011;1721;51.238;9.562;2023-04-08T04:57:08;9.67;;;3.00;;
3415;SDS011;1721;51.238;9.562;2023-04-08T04:59:35;8.02;;;3.78;;
3415;SDS011;1721;51.238;9.562;2023-04-08T05:02:00;7.43;;;3.37;;
3415;SDS011;1721;51.238;9.562;2023-04-08T05:04:26;8.60;;;3.33;;
3415;SDS011;1721;51.238;9.562;2023-04-08T05:06:52;12.13;;;4.17;;
3415;SDS011;1721;51.238;9.562;2023-04-08T05:09:17;7.57;;;3.70;;
3415;SDS011;1721;51.238;9.562;2023-04-08T05:11:43;9.43;;;4.13;;
3415;SDS011;1721;51.238;9.562;2023-04-08T05:14:09;9.63;;;4.17;;
3415;SDS011;1721;51.238;9.562;2023-04-08T05:16:34;8.53;;;3.33;;
3415;SDS011;1721;51.238;9.562;2023-04-08T05:19:00;9.00;;;3.70;;
3415;SDS011;1721;51.238;9.562;2023-04-08T05:21:26;16.43;;;4.13;;
3415;SDS011;1721;51.238;9.562;2023-04-08T05:23:52;9.13;;;3.70;;
3415;SDS011;1721;51.238;9.562;2023-04-08T05:26:21;6.88;;;3.38;;
3415;SDS011;1721;51.238;9.562;2023-04-08T05:28:47;12.80;;;4.18;;
3415;SDS011;1721;51.238;9.562;2023-04-08T05:31:15;7.13;;;3.20;;
3415;SDS011;1721;51.238;9.562;2023-04-08T05:33:41;8.95;;;3.25;;
3415;SDS011;1721;51.238;9.562;2023-04-08T05:36:06;10.70;;;3.83;;
3415;SDS011;1721;51.238;9.562;2023-04-08T05:38:32;7.63;;;3.00;;
3415;SDS011;1721;51.238;9.562;2023-04-08T05:40:58;8.90;;;3.43;;
3415;SDS011;1721;51.238;9.562;2023-04-08T05:43:23;7.53;;;3.23;;
3415;SDS011;1721;51.238;9.562;2023-04-08T05:45:49;7.47;;;3.30;;
3415;SDS011;1721;51.238;9.562;2023-04-08T05:48:15;9.07;;;3.63;;
3415;SDS011;1721;51.238;9.562;2023-04-08T05:50:40;10.30;;;4.30;;
3415;SDS011;1721;51.238;9.562;2023-04-08T05:53:07;8.98;;;3.55;;
3415;SDS011;1721;51.238;9.562;2023-04-08T05:55:33;10.98;;;4.65;;
3415;SDS011;1721;51.238;9.562;2023-04-08T05:57:59;9.03;;;3.97;;
3415;SDS011;1721;51.238;9.562;2023-04-08T06:00:25;7.93;;;3.53;;
3415;SDS011;1721;51.238;9.562;2023-04-08T06:02:50;8.53;;;3.47;;
3415;SDS011;1721;51.238;9.562;2023-04-08T06:05:16;7.13;;;3.93;;
3415;SDS011;1721;51.238;9.562;2023-04-08T06:07:43;8.18;;;3.50;;
3415;SDS011;1721;51.238;9.562;2023-04-08T06:10:08;9.83;;;4.83;;
3415;SDS011;1721;51.238;9.562;2023-04-08T06:12:35;12.17;;;3.70;;
3415;SDS011;1721;51.238;9.562;2023-04-08T06:15:02;10.52;;;3.42;;
3415;SDS011;1721;51.238;9.562;2023-04-08T06:17:28;9.80;;;3.83;;
3415;SDS011;1721;51.238;9.562;2023-04-08T06:19:53;8.50;;;2.73;;
3415;SDS011;1721;51.238;9.562;2023-04-08T06:22:19;7.40;;;3.33;;
3415;SDS011;1721;51.238;9.562;2023-04-08T06:24:48;10.23;;;3.57;;
3415;SDS011;1721;51.238;9.562;2023-04-08T06:27:14;9.73;;;3.72;;
3415;SDS011;1721;51.238;9.562;2023-04-08T06:29:40;9.05;;;3.90;;
3415;SDS011;1721;51.238;9.562;2023-04-08T06:32:05;10.40;;;4.30;;
3415;SDS011;1721;51.238;9.562;2023-04-08T06:34:31;10.07;;;3.50;;
3415;SDS011;1721;51.238;9.562;2023-04-08T06:36:57;12.80;;;4.47;;
3415;SDS011;1721;51.238;9.562;2023-04-08T06:39:22;8.60;;;4.27;;
3415;SDS011;1721;51.238;9.562;2023-04-08T06:41:48;14.20;;;5.67;;
3415;SDS011;1721;51.238;9.562;2023-04-08T06:44:13;8.60;;;4.20;;
3415;SDS011;1721;51.238;9.562;2023-04-08T06:46:39;9.20;;;5.17;;
3415;SDS011;1721;51.238;9.562;2023-04-08T06:49:05;10.57;;;4.10;;
3415;SDS011;1721;51.238;9.562;2023-04-08T06:51:31;13.20;;;4.53;;
3415;SDS011;1721;51.238;9.562;2023-04-08T06:53:56;10.87;;;3.40;;
3415;SDS011;1721;51.238;9.562;2023-04-08T06:56:22;9.50;;;4.27;;
3415;SDS011;1721;51.238;9.562;2023-04-08T06:58:50;11.45;;;4.15;;
3415;SDS011;1721;51.238;9.562;2023-04-08T07:01:16;17.03;;;5.23;;
3415;SDS011;1721;51.238;9.562;2023-04-08T07:03:41;13.27;;;4.53;;
3415;SDS011;1721;51.238;9.562;2023-04-08T07:06:07;12.33;;;4.60;;
3415;SDS011;1721;51.238;9.562;2023-04-08T07:08:33;8.83;;;3.60;;
3415;SDS011;1721;51.238;9.562;2023-04-08T07:10:58;13.20;;;5.20;;
3415;SDS011;1721;51.238;9.562;2023-04-08T07:13:24;13.17;;;5.23;;
3415;SDS011;1721;51.238;9.562;2023-04-08T07:15:50;11.03;;;4.70;;
3415;SDS011;1721;51.238;9.562;2023-04-08T07:18:15;12.55;;;5.45;;
3415;SDS011;1721;51.238;9.562;2023-04-08T07:20:41;9.60;;;5.30;;
3415;SDS011;1721;51.238;9.562;2023-04-08T07:23:07;16.03;;;6.00;;
3415;SDS011;1721;51.238;9.562;2023-04-08T07:25:32;21.90;;;6.27;;
3415;SDS011;1721;51.238;9.562;2023-04-08T07:28:01;14.52;;;7.03;;
3415;SDS011;1721;51.238;9.562;2023-04-08T07:30:26;22.93;;;7.80;;
3415;SDS011;1721;51.238;9.562;2023-04-08T07:32:52;13.90;;;5.67;;
3415;SDS011;1721;51.238;9.562;2023-04-08T07:35:19;17.02;;;6.57;;
3415;SDS011;1721;51.238;9.562;2023-04-08T07:37:48;17.08;;;7.38;;
3415;SDS011;1721;51.238;9.562;2023-04-08T07:40:15;18.73;;;6.68;;
3415;SDS011;1721;51.238;9.562;2023-04-08T07:42:40;15.97;;;6.77;;
3415;SDS011;1721;51.238;9.562;2023-04-08T07:45:06;15.77;;;7.17;;
3415;SDS011;1721;51.238;9.562;2023-04-08T07:47:32;14.13;;;5.18;;
3415;SDS011;1721;51.238;9.562;2023-04-08T07:49:58;13.13;;;5.40;;
3415;SDS011;1721;51.238;9.562;2023-04-08T07:52:23;23.47;;;6.20;;
3415;SDS011;1721;51.238;9.562;2023-04-08T07:54:50;17.85;;;6.35;;
3415;SDS011;1721;51.238;9.562;2023-04-08T07:57:15;12.20;;;4.90;;
3415;SDS011;1721;51.238;9.562;2023-04-08T07:59:41;18.43;;;5.17;;
3415;SDS011;1721;51.238;9.562;2023-04-08T08:02:06;12.70;;;4.90;;
3415;SDS011;1721;51.238;9.562;2023-04-08T08:04:32;9.93;;;3.73;;
3415;SDS011;1721;51.238;9.562;2023-04-08T08:06:58;23.77;;;6.43;;
3415;SDS011;1721;51.238;9.562;2023-04-08T08:09:23;13.97;;;5.30;;
3415;SDS011;1721;51.238;9.562;2023-04-08T08:11:49;12.83;;;5.20;;
3415;SDS011;1721;51.238;9.562;2023-04-08T08:14:14;10.87;;;4.30;;
3415;SDS011;1721;51.238;9.562;2023-04-08T08:16:40;11.10;;;3.90;;
3415;SDS011;1721;51.238;9.562;2023-04-08T08:19:06;16.23;;;4.80;;
3415;SDS011;1721;51.238;9.562;2023-04-08T08:21:35;13.55;;;5.88;;
3415;SDS011;1721;51.238;9.562;2023-04-08T08:24:01;17.02;;;5.75;;
3415;SDS011;1721;51.238;9.562;2023-04-08T08:26:26;15.33;;;5.53;;
3415;SDS011;1721;51.238;9.562;2023-04-08T08:28:52;13.63;;;4.43;;
3415;SDS011;1721;51.238;9.562;2023-04-08T08:31:18;13.25;;;4.97;;
3415;SDS011;1721;51.238;9.562;2023-04-08T08:33:44;12.30;;;4.23;;
3415;SDS011;1721;51.238;9.562;2023-04-08T08:36:10;10.35;;;4.60;;
3415;SDS011;1721;51.238;9.562;2023-04-08T08:38:36;12.33;;;4.83;;
3415;SDS011;1721;51.238;9.562;2023-04-08T08:41:02;11.93;;;5.10;;
3415;SDS011;1721;51.238;9.562;2023-04-08T08:43:28;13.65;;;5.03;;
3415;SDS011;1721;51.238;9.562;2023-04-08T08:45:57;17.45;;;6.65;;
3415;SDS011;1721;51.238;9.562;2023-04-08T08:48:23;13.25;;;4.50;;
3415;SDS011;1721;51.238;9.562;2023-04-08T08:50:49;15.35;;;4.40;;
3415;SDS011;1721;51.238;9.562;2023-04-08T08:53:15;14.55;;;4.40;;
3415;SDS011;1721;51.238;9.562;2023-04-08T08:55:41;14.97;;;5.83;;
3415;SDS011;1721;51.238;9.562;2023-04-08T08:58:07;13.47;;;5.57;;
3415;SDS011;1721;51.238;9.562;2023-04-08T09:00:37;15.93;;;5.53;;
3415;SDS011;1721;51.238;9.562;2023-04-08T09:03:13;14.50;;;5.47;;
3415;SDS011;1721;51.238;9.562;2023-04-08T09:05:54;13.73;;;5.78;;
3415;SDS011;1721;51.238;9.562;2023-04-08T09:08:23;14.73;;;6.00;;
3415;SDS011;1721;51.238;9.562;2023-04-08T09:10:49;12.20;;;5.53;;
3415;SDS011;1721;51.238;9.562;2023-04-08T09:13:15;9.37;;;4.33;;
3415;SDS011;1721;51.238;9.562;2023-04-08T09:18:24;16.50;;;5.45;;
3415;SDS011;1721;51.238;9.562;2023-04-08T09:20:51;17.95;;;4.93;;
3415;SDS011;1721;51.238;9.562;2023-04-08T09:23:17;13.48;;;5.15;;
3415;SDS011;1721;51.238;9.562;2023-04-08T09:25:43;12.00;;;5.03;;
3415;SDS011;1721;51.238;9.562;2023-04-08T09:28:18;14.03;;;4.67;;
3415;SDS011;1721;51.238;9.562;2023-04-08T09:30:47;15.00;;;4.07;;
3415;SDS011;1721;51.238;9.562;2023-04-08T09:33:12;14.10;;;5.27;;
3415;SDS011;1721;51.238;9.562;2023-04-08T09:35:38;9.00;;;3.90;;
3415;SDS011;1721;51.238;9.562;2023-04-08T09:38:03;16.37;;;5.90;;
3415;SDS011;1721;51.238;9.562;2023-04-08T09:40:31;11.50;;;5.23;;
3415;SDS011;1721;51.238;9.562;2023-04-08T09:42:59;10.40;;;4.25;;
3415;SDS011;1721;51.238;9.562;2023-04-08T09:45:29;9.68;;;4.10;;
3415;SDS011;1721;51.238;9.562;2023-04-08T09:48:08;13.93;;;4.47;;
3415;SDS011;1721;51.238;9.562;2023-04-08T09:50:38;18.40;;;4.60;;
3415;SDS011;1721;51.238;9.562;2023-04-08T09:53:15;13.05;;;4.70;;
3415;SDS011;1721;51.238;9.562;2023-04-08T09:55:50;16.67;;;5.50;;
3415;SDS011;1721;51.238;9.562;2023-04-08T09:58:24;13.05;;;4.35;;
3415;SDS011;1721;51.238;9.562;2023-04-08T10:00:53;12.07;;;4.57;;
3415;SDS011;1721;51.238;9.562;2023-04-08T10:03:23;17.03;;;5.00;;
3415;SDS011;1721;51.238;9.562;2023-04-08T10:05:54;15.80;;;5.25;;
3415;SDS011;1721;51.238;9.562;2023-04-08T10:08:22;20.30;;;5.82;;
3415;SDS011;1721;51.238;9.562;2023-04-08T10:10:49;9.10;;;4.40;;
3415;SDS011;1721;51.238;9.562;2023-04-08T10:13:15;14.60;;;5.20;;
3415;SDS011;1721;51.238;9.562;2023-04-08T10:15:41;11.63;;;4.93;;
3415;SDS011;1721;51.238;9.562;2023-04-08T10:25:36;12.88;;;4.70;;
3415;SDS011;1721;51.238;9.562;2023-04-08T10:30:53;12.63;;;4.20;;
3415;SDS011;1721;51.238;9.562;2023-04-08T10:35:52;21.10;;;4.90;;
3415;SDS011;1721;51.238;9.562;2023-04-08T10:38:19;13.13;;;5.78;;
3415;SDS011;1721;51.238;9.562;2023-04-08T10:40:46;13.82;;;4.95;;
3415;SDS011;1721;51.238;9.562;2023-04-08T10:43:14;13.57;;;5.50;;
3415;SDS011;1721;51.238;9.562;2023-04-08T10:45:40;21.85;;;4.72;;
3415;SDS011;1721;51.238;9.562;2023-04-08T10:48:25;12.55;;;4.75;;
3415;SDS011;1721;51.238;9.562;2023-04-08T10:50:57;10.57;;;4.32;;
3415;SDS011;1721;51.238;9.562;2023-04-08T10:53:30;19.02;;;6.32;;
3415;SDS011;1721;51.238;9.562;2023-04-08T10:58:34;22.77;;;7.07;;
3415;SDS011;1721;51.238;9.562;2023-04-08T11:01:04;15.50;;;4.55;;
3415;SDS011;1721;51.238;9.562;2023-04-08T11:03:31;13.77;;;4.50;;
3415;SDS011;1721;51.238;9.562;2023-04-08T11:05:58;18.25;;;6.25;;
3415;SDS011;1721;51.238;9.562;2023-04-08T11:08:28;15.50;;;5.53;;
3415;SDS011;1721;51.238;9.562;2023-04-08T11:10:54;11.68;;;4.55;;
3415;SDS011;1721;51.238;9.562;2023-04-08T11:13:20;17.40;;;5.30;;
3415;SDS011;1721;51.238;9.562;2023-04-08T11:15:47;18.25;;;5.50;;
3415;SDS011;1721;51.238;9.562;2023-04-08T11:18:14;13.43;;;5.25;;
3415;SDS011;1721;51.238;9.562;2023-04-08T11:20:40;15.35;;;5.18;;
3415;SDS011;1721;51.238;9.562;2023-04-08T11:23:12;12.85;;;4.90;;
3415;SDS011;1721;51.238;9.562;2023-04-08T11:25:39;14.70;;;6.10;;
3415;SDS011;1721;51.238;9.562;2023-04-08T11:28:10;15.48;;;5.75;;
3415;SDS011;1721;51.238;9.562;2023-04-08T11:30:37;18.95;;;5.70;;
3415;SDS011;1721;51.238;9.562;2023-04-08T11:33:03;21.20;;;6.28;;
3415;SDS011;1721;51.238;9.562;2023-04-08T11:35:29;21.47;;;6.53;;
3415;SDS011;1721;51.238;9.562;2023-04-08T11:37:55;17.77;;;5.82;;
3415;SDS011;1721;51.238;9.562;2023-04-08T11:40:22;12.68;;;5.15;;
3415;SDS011;1721;51.238;9.562;2023-04-08T11:42:49;18.90;;;5.10;;
3415;SDS011;1721;51.238;9.562;2023-04-08T11:45:15;22.75;;;6.82;;
3415;SDS011;1721;51.238;9.562;2023-04-08T11:47:43;16.27;;;6.03;;
3415;SDS011;1721;51.238;9.562;2023-04-08T11:50:11;12.05;;;5.20;;
3415;SDS011;1721;51.238;9.562;2023-04-08T11:52:43;15.20;;;5.10;;
3415;SDS011;1721;51.238;9.562;2023-04-08T11:55:20;19.65;;;5.75;;
3415;SDS011;1721;51.238;9.562;2023-04-08T11:57:51;17.98;;;6.10;;
3415;SDS011;1721;51.238;9.562;2023-04-08T12:00:17;15.35;;;6.35;;
3415;SDS011;1721;51.238;9.562;2023-04-08T12:02:44;22.65;;;6.35;;
3415;SDS011;1721;51.238;9.562;2023-04-08T12:05:11;23.58;;;6.93;;
3415;SDS011;1721;51.238;9.562;2023-04-08T12:07:36;17.23;;;6.63;;
3415;SDS011;1721;51.238;9.562;2023-04-08T12:10:02;16.40;;;6.10;;
3415;SDS011;1721;51.238;9.562;2023-04-08T12:12:28;20.50;;;5.90;;
3415;SDS011;1721;51.238;9.562;2023-04-08T12:14:53;16.90;;;7.17;;
3415;SDS011;1721;51.238;9.562;2023-04-08T12:17:19;16.30;;;5.47;;
3415;SDS011;1721;51.238;9.562;2023-04-08T12:19:44;19.17;;;6.00;;
3415;SDS011;1721;51.238;9.562;2023-04-08T12:22:10;16.03;;;5.77;;
3415;SDS011;1721;51.238;9.562;2023-04-08T12:24:35;20.13;;;6.67;;
3415;SDS011;1721;51.238;9.562;2023-04-08T12:27:01;19.73;;;5.93;;
3415;SDS011;1721;51.238;9.562;2023-04-08T12:29:28;15.63;;;6.20;;
3415;SDS011;1721;51.238;9.562;2023-04-08T12:31:54;19.13;;;6.90;;
3415;SDS011;1721;51.238;9.562;2023-04-08T12:34:19;15.10;;;7.23;;
3415;SDS011;1721;51.238;9.562;2023-04-08T12:36:45;22.20;;;6.80;;
3415;SDS011;1721;51.238;9.562;2023-04-08T12:39:11;14.85;;;5.30;;
3415;SDS011;1721;51.238;9.562;2023-04-08T12:41:37;23.63;;;6.77;;
3415;SDS011;1721;51.238;9.562;2023-04-08T12:44:02;20.20;;;6.27;;
3415;SDS011;1721;51.238;9.562;2023-04-08T12:46:28;14.63;;;5.83;;
3415;SDS011;1721;51.238;9.562;2023-04-08T12:48:53;19.13;;;5.37;;
3415;SDS011;1721;51.238;9.562;2023-04-08T12:51:19;16.63;;;5.80;;
3415;SDS011;1721;51.238;9.562;2023-04-08T12:53:44;23.63;;;7.60;;
3415;SDS011;1721;51.238;9.562;2023-04-08T12:56:10;13.50;;;6.43;;
3415;SDS011;1721;51.238;9.562;2023-04-08T12:58:36;18.53;;;5.80;;
3415;SDS011;1721;51.238;9.562;2023-04-08T13:01:01;12.93;;;5.57;;
3415;SDS011;1721;51.238;9.562;2023-04-08T13:03:27;19.77;;;6.50;;
3415;SDS011;1721;51.238;9.562;2023-04-08T13:05:55;17.13;;;6.10;;
3415;SDS011;1721;51.238;9.562;2023-04-08T13:08:22;14.35;;;6.10;;
3415;SDS011;1721;51.238;9.562;2023-04-08T13:10:48;20.87;;;7.80;;
3415;SDS011;1721;51.238;9.562;2023-04-08T13:13:14;18.47;;;6.73;;
3415;SDS011;1721;51.238;9.562;2023-04-08T13:15:40;15.57;;;5.30;;
3415;SDS011;1721;51.238;9.562;2023-04-08T13:18:05;14.47;;;5.63;;
3415;SDS011;1721;51.238;9.562;2023-04-08T13:20:31;18.60;;;5.30;;
3415;SDS011;1721;51.238;9.562;2023-04-08T13:22:57;21.60;;;6.60;;
3415;SDS011;1721;51.238;9.562;2023-04-08T13:25:24;13.55;;;4.53;;
3415;SDS011;1721;51.238;9.562;2023-04-08T13:27:50;13.83;;;5.10;;
3415;SDS011;1721;51.238;9.562;2023-04-08T13:30:15;13.73;;;4.93;;
3415;SDS011;1721;51.238;9.562;2023-04-08T13:32:41;17.37;;;6.10;;
3415;SDS011;1721;51.238;9.562;2023-04-08T13:35:07;14.97;;;5.53;;
3415;SDS011;1721;51.238;9.562;2023-04-08T13:37:32;16.80;;;6.37;;
3415;SDS011;1721;51.238;9.562;2023-04-08T13:39:58;17.50;;;5.10;;
3415;SDS011;1721;51.238;9.562;2023-04-08T13:42:24;18.87;;;6.13;;
3415;SDS011;1721;51.238;9.562;2023-04-08T13:44:49;11.77;;;5.40;;
3415;SDS011;1721;51.238;9.562;2023-04-08T13:47:15;12.67;;;4.73;;
3415;SDS011;1721;51.238;9.562;2023-04-08T13:49:41;14.10;;;4.10;;
3415;SDS011;1721;51.238;9.562;2023-04-08T13:52:06;11.83;;;4.70;;
3415;SDS011;1721;51.238;9.562;2023-04-08T13:54:32;12.77;;;4.13;;
3415;SDS011;1721;51.238;9.562;2023-04-08T13:56:57;9.93;;;4.17;;
3415;SDS011;1721;51.238;9.562;2023-04-08T13:59:23;11.90;;;4.00;;
3415;SDS011;1721;51.238;9.562;2023-04-08T14:01:48;11.20;;;4.10;;
3415;SDS011;1721;51.238;9.562;2023-04-08T14:04:18;9.77;;;2.72;;
3415;SDS011;1721;51.238;9.562;2023-04-08T14:06:44;9.73;;;3.70;;
3415;SDS011;1721;51.238;9.562;2023-04-08T14:09:10;11.37;;;4.03;;
3415;SDS011;1721;51.238;9.562;2023-04-08T14:11:36;8.93;;;2.93;;
3415;SDS011;1721;51.238;9.562;2023-04-08T14:14:02;13.60;;;4.47;;
3415;SDS011;1721;51.238;9.562;2023-04-08T14:16:28;12.13;;;5.00;;
3415;SDS011;1721;51.238;9.562;2023-04-08T14:18:55;13.57;;;4.97;;
3415;SDS011;1721;51.238;9.562;2023-04-08T14:21:21;12.30;;;4.23;;
3415;SDS011;1721;51.238;9.562;2023-04-08T14:23:49;11.82;;;4.78;;
3415;SDS011;1721;51.238;9.562;2023-04-08T14:26:15;12.67;;;4.07;;
3415;SDS011;1721;51.238;9.562;2023-04-08T14:28:40;13.17;;;4.27;;
3415;SDS011;1721;51.238;9.562;2023-04-08T14:31:06;11.17;;;4.70;;
3415;SDS011;1721;51.238;9.562;2023-04-08T14:33:32;12.00;;;4.63;;
3415;SDS011;1721;51.238;9.562;2023-04-08T14:35:57;15.60;;;5.10;;
3415;SDS011;1721;51.238;9.562;2023-04-08T14:38:23;9.80;;;3.90;;
3415;SDS011;1721;51.238;9.562;2023-04-08T14:40:49;10.80;;;3.33;;
3415;SDS011;1721;51.238;9.562;2023-04-08T14:43:15;9.70;;;3.60;;
3415;SDS011;1721;51.238;9.562;2023-04-08T14:45:40;9.77;;;3.97;;
3415;SDS011;1721;51.238;9.562;2023-04-08T14:48:06;11.50;;;4.03;;
3415;SDS011;1721;51.238;9.562;2023-04-08T14:50:32;9.17;;;3.57;;
3415;SDS011;1721;51.238;9.562;2023-04-08T14:52:57;15.80;;;5.07;;
3415;SDS011;1721;51.238;9.562;2023-04-08T14:55:23;10.53;;;4.17;;
3415;SDS011;1721;51.238;9.562;2023-04-08T14:57:49;10.23;;;4.82;;
3415;SDS011;1721;51.238;9.562;2023-04-08T15:00:15;12.57;;;5.10;;
3415;SDS011;1721;51.238;9.562;2023-04-08T15:02:40;12.13;;;4.40;;
3415;SDS011;1721;51.238;9.562;2023-04-08T15:05:06;14.00;;;5.30;;
3415;SDS011;1721;51.238;9.562;2023-04-08T15:07:32;16.05;;;3.90;;
3415;SDS011;1721;51.238;9.562;2023-04-08T15:09:58;10.33;;;3.77;;
3415;SDS011;1721;51.238;9.562;2023-04-08T15:12:23;11.30;;;4.03;;
3415;SDS011;1721;51.238;9.562;2023-04-08T15:14:49;8.13;;;2.80;;
3415;SDS011;1721;51.238;9.562;2023-04-08T15:17:15;11.20;;;3.67;;
3415;SDS011;1721;51.238;9.562;2023-04-08T15:19:41;9.93;;;2.92;;
3415;SDS011;1721;51.238;9.562;2023-04-08T15:22:06;15.13;;;3.90;;
3415;SDS011;1721;51.238;9.562;2023-04-08T15:24:32;7.93;;;2.60;;